sensor_id;sensor_type;location;lat;lon;timestamp;temperature;humidity
26186;DHT22;20067;48.764;9.176;2024-02-26T00:01:39;9.30;87.10
26186;DHT22;20067;48.764;9.176;2024-02-26T00:04:05;9.30;86.40
26186;DHT22;20067;48.764;9.176;2024-02-26T00:06:31;9.20;86.60
26186;DHT22;20067;48.764;9.176;2024-02-26T00:08:57;9.30;86.90
26186;DHT22;20067;48.764;9.176;2024-02-26T00:11:23;9.50;86.50
26186;DHT22;20067;48.764;9.176;2024-02-26T00:13:49;9.60;86.10
26186;DHT22;20067;48.764;9.176;2024-02-26T00:16:15;9.70;86.90
26186;DHT22;20067;48.764;9.176;2024-02-26T00:18:40;9.80;87.00
26186;DHT22;20067;48.764;9.176;2024-02-26T00:21:06;9.90;86.90
26186;DHT22;20067;48.764;9.176;2024-02-26T00:23:32;9.80;86.60
26186;DHT22;20067;48.764;9.176;2024-02-26T00:25:57;9.90;86.40
26186;DHT22;20067;48.764;9.176;2024-02-26T00:28:23;9.80;86.70
26186;DHT22;20067;48.764;9.176;2024-02-26T00:30:50;9.50;87.10
26186;DHT22;20067;48.764;9.176;2024-02-26T00:33:17;9.30;88.30
26186;DHT22;20067;48.764;9.176;2024-02-26T00:35:42;9.50;88.00
26186;DHT22;20067;48.764;9.176;2024-02-26T00:38:08;9.50;88.00
26186;DHT22;20067;48.764;9.176;2024-02-26T00:40:33;9.40;88.70
26186;DHT22;20067;48.764;9.176;2024-02-26T00:42:59;9.60;88.20
26186;DHT22;20067;48.764;9.176;2024-02-26T00:45:25;9.70;87.80
26186;DHT22;20067;48.764;9.176;2024-02-26T00:47:51;9.90;87.40
26186;DHT22;20067;48.764;9.176;2024-02-26T00:50:16;9.90;85.80
26186;DHT22;20067;48.764;9.176;2024-02-26T00:52:42;9.70;86.30
26186;DHT22;20067;48.764;9.176;2024-02-26T00:55:08;9.60;87.70
26186;DHT22;20067;48.764;9.176;2024-02-26T00:57:34;9.70;87.50
26186;DHT22;20067;48.764;9.176;2024-02-26T01:00:00;9.60;88.30
26186;DHT22;20067;48.764;9.176;2024-02-26T01:02:26;9.80;87.90
26186;DHT22;20067;48.764;9.176;2024-02-26T01:04:52;9.90;87.20
26186;DHT22;20067;48.764;9.176;2024-02-26T01:07:18;9.90;87.40
26186;DHT22;20067;48.764;9.176;2024-02-26T01:09:44;9.40;88.70
26186;DHT22;20067;48.764;9.176;2024-02-26T01:12:10;9.00;89.70
26186;DHT22;20067;48.764;9.176;2024-02-26T01:14:35;9.20;89.90
26186;DHT22;20067;48.764;9.176;2024-02-26T01:17:01;9.30;89.50
26186;DHT22;20067;48.764;9.176;2024-02-26T01:19:27;9.30;89.30
26186;DHT22;20067;48.764;9.176;2024-02-26T01:21:53;9.30;89.30
26186;DHT22;20067;48.764;9.176;2024-02-26T01:24:18;9.10;89.20
26186;DHT22;20067;48.764;9.176;2024-02-26T01:26:44;8.80;90.30
26186;DHT22;20067;48.764;9.176;2024-02-26T01:29:10;9.20;89.50
26186;DHT22;20067;48.764;9.176;2024-02-26T01:31:35;9.30;89.00
26186;DHT22;20067;48.764;9.176;2024-02-26T01:34:01;9.30;88.90
26186;DHT22;20067;48.764;9.176;2024-02-26T01:36:27;9.10;89.40
26186;DHT22;20067;48.764;9.176;2024-02-26T01:38:53;9.30;89.10
26186;DHT22;20067;48.764;9.176;2024-02-26T01:41:18;9.50;88.20
26186;DHT22;20067;48.764;9.176;2024-02-26T01:43:44;9.50;88.20
26186;DHT22;20067;48.764;9.176;2024-02-26T01:46:14;9.50;88.30
26186;DHT22;20067;48.764;9.176;2024-02-26T01:48:44;9.50;88.60
26186;DHT22;20067;48.764;9.176;2024-02-26T01:51:14;9.60;88.60
26186;DHT22;20067;48.764;9.176;2024-02-26T01:53:40;9.50;88.80
26186;DHT22;20067;48.764;9.176;2024-02-26T01:56:07;9.20;89.50
26186;DHT22;20067;48.764;9.176;2024-02-26T01:58:34;9.20;90.10
26186;DHT22;20067;48.764;9.176;2024-02-26T02:01:01;9.20;90.50
26186;DHT22;20067;48.764;9.176;2024-02-26T02:03:28;9.40;90.00
26186;DHT22;20067;48.764;9.176;2024-02-26T02:05:55;9.50;89.60
26186;DHT22;20067;48.764;9.176;2024-02-26T02:08:22;9.50;89.20
26186;DHT22;20067;48.764;9.176;2024-02-26T02:10:50;9.30;89.40
26186;DHT22;20067;48.764;9.176;2024-02-26T02:13:16;9.10;90.60
26186;DHT22;20067;48.764;9.176;2024-02-26T02:15:42;9.20;89.70
26186;DHT22;20067;48.764;9.176;2024-02-26T02:18:07;9.20;88.70
26186;DHT22;20067;48.764;9.176;2024-02-26T02:20:34;9.10;86.60
26186;DHT22;20067;48.764;9.176;2024-02-26T02:22:59;9.10;86.10
26186;DHT22;20067;48.764;9.176;2024-02-26T02:25:25;9.20;86.70
26186;DHT22;20067;48.764;9.176;2024-02-26T02:27:53;9.20;86.10
26186;DHT22;20067;48.764;9.176;2024-02-26T02:30:20;9.20;88.10
26186;DHT22;20067;48.764;9.176;2024-02-26T02:32:46;9.30;85.70
26186;DHT22;20067;48.764;9.176;2024-02-26T02:35:12;9.50;83.20
26186;DHT22;20067;48.764;9.176;2024-02-26T02:37:38;9.40;81.80
26186;DHT22;20067;48.764;9.176;2024-02-26T02:40:04;9.40;83.10
26186;DHT22;20067;48.764;9.176;2024-02-26T02:42:31;9.40;83.00
26186;DHT22;20067;48.764;9.176;2024-02-26T02:44:56;9.40;83.70
26186;DHT22;20067;48.764;9.176;2024-02-26T02:47:22;9.60;82.90
26186;DHT22;20067;48.764;9.176;2024-02-26T02:49:48;9.70;81.40
26186;DHT22;20067;48.764;9.176;2024-02-26T02:52:13;9.60;82.70
26186;DHT22;20067;48.764;9.176;2024-02-26T02:54:39;9.70;84.30
26186;DHT22;20067;48.764;9.176;2024-02-26T02:57:07;9.80;84.80
26186;DHT22;20067;48.764;9.176;2024-02-26T02:59:33;9.70;85.90
26186;DHT22;20067;48.764;9.176;2024-02-26T03:01:59;9.70;86.00
26186;DHT22;20067;48.764;9.176;2024-02-26T03:04:24;9.70;85.30
26186;DHT22;20067;48.764;9.176;2024-02-26T03:06:50;9.60;84.80
26186;DHT22;20067;48.764;9.176;2024-02-26T03:09:16;9.70;85.00
26186;DHT22;20067;48.764;9.176;2024-02-26T03:11:41;9.50;86.10
26186;DHT22;20067;48.764;9.176;2024-02-26T03:14:07;9.10;87.80
26186;DHT22;20067;48.764;9.176;2024-02-26T03:16:33;9.30;87.90
26186;DHT22;20067;48.764;9.176;2024-02-26T03:18:59;9.40;87.80
26186;DHT22;20067;48.764;9.176;2024-02-26T03:21:25;9.20;88.00
26186;DHT22;20067;48.764;9.176;2024-02-26T03:23:51;9.50;87.30
26186;DHT22;20067;48.764;9.176;2024-02-26T03:26:17;9.80;86.40
26186;DHT22;20067;48.764;9.176;2024-02-26T03:28:42;9.70;86.50
26186;DHT22;20067;48.764;9.176;2024-02-26T03:31:08;9.70;86.50
26186;DHT22;20067;48.764;9.176;2024-02-26T03:33:34;9.70;86.70
26186;DHT22;20067;48.764;9.176;2024-02-26T03:36:00;10.00;86.30
26186;DHT22;20067;48.764;9.176;2024-02-26T03:38:25;10.10;86.10
26186;DHT22;20067;48.764;9.176;2024-02-26T03:40:51;10.10;86.20
26186;DHT22;20067;48.764;9.176;2024-02-26T03:43:17;10.00;86.30
26186;DHT22;20067;48.764;9.176;2024-02-26T03:45:43;10.10;86.30
26186;DHT22;20067;48.764;9.176;2024-02-26T03:48:08;10.20;86.20
26186;DHT22;20067;48.764;9.176;2024-02-26T03:50:34;10.20;85.60
26186;DHT22;20067;48.764;9.176;2024-02-26T03:53:00;9.90;86.20
26186;DHT22;20067;48.764;9.176;2024-02-26T03:55:25;9.50;88.00
26186;DHT22;20067;48.764;9.176;2024-02-26T03:57:52;9.70;88.10
26186;DHT22;20067;48.764;9.176;2024-02-26T04:00:18;9.60;88.60
26186;DHT22;20067;48.764;9.176;2024-02-26T04:02:43;9.70;89.30
26186;DHT22;20067;48.764;9.176;2024-02-26T04:05:11;9.60;89.70
26186;DHT22;20067;48.764;9.176;2024-02-26T04:07:37;9.50;89.40
26186;DHT22;20067;48.764;9.176;2024-02-26T04:10:02;9.50;90.20
26186;DHT22;20067;48.764;9.176;2024-02-26T04:12:31;9.60;89.70
26186;DHT22;20067;48.764;9.176;2024-02-26T04:14:57;9.80;89.20
26186;DHT22;20067;48.764;9.176;2024-02-26T04:17:22;9.80;89.50
26186;DHT22;20067;48.764;9.176;2024-02-26T04:19:48;9.60;88.50
26186;DHT22;20067;48.764;9.176;2024-02-26T04:22:13;9.30;89.50
26186;DHT22;20067;48.764;9.176;2024-02-26T04:24:39;9.50;88.80
26186;DHT22;20067;48.764;9.176;2024-02-26T04:27:05;9.50;87.90
26186;DHT22;20067;48.764;9.176;2024-02-26T04:29:30;9.70;87.60
26186;DHT22;20067;48.764;9.176;2024-02-26T04:31:56;9.90;87.30
26186;DHT22;20067;48.764;9.176;2024-02-26T04:34:21;9.90;87.10
26186;DHT22;20067;48.764;9.176;2024-02-26T04:36:47;9.90;87.10
26186;DHT22;20067;48.764;9.176;2024-02-26T04:39:13;9.80;88.00
26186;DHT22;20067;48.764;9.176;2024-02-26T04:41:39;9.70;88.40
26186;DHT22;20067;48.764;9.176;2024-02-26T04:44:05;9.30;89.50
26186;DHT22;20067;48.764;9.176;2024-02-26T04:46:31;9.00;90.40
26186;DHT22;20067;48.764;9.176;2024-02-26T04:48:56;9.10;90.60
26186;DHT22;20067;48.764;9.176;2024-02-26T04:51:22;9.30;90.50
26186;DHT22;20067;48.764;9.176;2024-02-26T04:53:48;9.20;90.80
26186;DHT22;20067;48.764;9.176;2024-02-26T04:56:13;9.50;90.30
26186;DHT22;20067;48.764;9.176;2024-02-26T04:58:39;9.50;86.90
26186;DHT22;20067;48.764;9.176;2024-02-26T05:01:06;9.50;86.00
26186;DHT22;20067;48.764;9.176;2024-02-26T05:03:32;9.40;86.60
26186;DHT22;20067;48.764;9.176;2024-02-26T05:05:57;9.50;86.50
26186;DHT22;20067;48.764;9.176;2024-02-26T05:08:23;9.30;86.20
26186;DHT22;20067;48.764;9.176;2024-02-26T05:10:49;9.30;86.20
26186;DHT22;20067;48.764;9.176;2024-02-26T05:13:15;9.20;86.60
26186;DHT22;20067;48.764;9.176;2024-02-26T05:15:43;9.10;87.50
26186;DHT22;20067;48.764;9.176;2024-02-26T05:18:09;9.20;87.10
26186;DHT22;20067;48.764;9.176;2024-02-26T05:20:34;9.10;87.50
26186;DHT22;20067;48.764;9.176;2024-02-26T05:23:01;9.10;87.90
26186;DHT22;20067;48.764;9.176;2024-02-26T05:25:27;9.00;88.10
26186;DHT22;20067;48.764;9.176;2024-02-26T05:27:52;9.20;88.00
26186;DHT22;20067;48.764;9.176;2024-02-26T05:30:18;9.10;87.80
26186;DHT22;20067;48.764;9.176;2024-02-26T05:32:44;9.30;88.10
26186;DHT22;20067;48.764;9.176;2024-02-26T05:35:09;9.50;87.70
26186;DHT22;20067;48.764;9.176;2024-02-26T05:37:35;9.70;86.00
26186;DHT22;20067;48.764;9.176;2024-02-26T05:40:01;9.60;86.20
26186;DHT22;20067;48.764;9.176;2024-02-26T05:42:29;9.40;88.20
26186;DHT22;20067;48.764;9.176;2024-02-26T05:44:55;9.60;89.50
26186;DHT22;20067;48.764;9.176;2024-02-26T05:47:21;9.60;89.00
26186;DHT22;20067;48.764;9.176;2024-02-26T05:49:46;9.70;87.40
26186;DHT22;20067;48.764;9.176;2024-02-26T05:52:12;9.50;88.90
26186;DHT22;20067;48.764;9.176;2024-02-26T05:54:38;9.60;89.40
26186;DHT22;20067;48.764;9.176;2024-02-26T05:57:03;9.60;88.80
26186;DHT22;20067;48.764;9.176;2024-02-26T05:59:29;9.40;90.30
26186;DHT22;20067;48.764;9.176;2024-02-26T06:01:55;9.30;89.90
26186;DHT22;20067;48.764;9.176;2024-02-26T06:04:20;9.20;91.30
26186;DHT22;20067;48.764;9.176;2024-02-26T06:06:46;9.20;91.30
26186;DHT22;20067;48.764;9.176;2024-02-26T06:09:11;9.00;91.30
26186;DHT22;20067;48.764;9.176;2024-02-26T06:11:37;9.00;91.30
26186;DHT22;20067;48.764;9.176;2024-02-26T06:14:03;8.90;91.30
26186;DHT22;20067;48.764;9.176;2024-02-26T06:16:29;9.10;91.30
26186;DHT22;20067;48.764;9.176;2024-02-26T06:18:54;9.20;91.30
26186;DHT22;20067;48.764;9.176;2024-02-26T06:21:20;9.30;91.30
26186;DHT22;20067;48.764;9.176;2024-02-26T06:23:45;9.40;91.30
26186;DHT22;20067;48.764;9.176;2024-02-26T06:26:11;9.40;91.30
26186;DHT22;20067;48.764;9.176;2024-02-26T06:28:37;9.30;91.30
26186;DHT22;20067;48.764;9.176;2024-02-26T06:31:06;9.30;91.30
26186;DHT22;20067;48.764;9.176;2024-02-26T06:33:32;9.40;91.30
26186;DHT22;20067;48.764;9.176;2024-02-26T06:35:58;9.50;91.30
26186;DHT22;20067;48.764;9.176;2024-02-26T06:38:24;9.50;91.30
26186;DHT22;20067;48.764;9.176;2024-02-26T06:40:49;9.60;91.30
26186;DHT22;20067;48.764;9.176;2024-02-26T06:43:15;9.50;91.30
26186;DHT22;20067;48.764;9.176;2024-02-26T06:45:41;9.60;91.30
26186;DHT22;20067;48.764;9.176;2024-02-26T06:48:07;9.70;91.30
26186;DHT22;20067;48.764;9.176;2024-02-26T06:50:33;9.70;91.30
26186;DHT22;20067;48.764;9.176;2024-02-26T06:52:58;9.80;91.30
26186;DHT22;20067;48.764;9.176;2024-02-26T06:55:24;9.90;91.30
26186;DHT22;20067;48.764;9.176;2024-02-26T06:57:49;9.90;91.30
26186;DHT22;20067;48.764;9.176;2024-02-26T07:00:15;9.90;91.30
26186;DHT22;20067;48.764;9.176;2024-02-26T07:02:42;9.30;91.30
26186;DHT22;20067;48.764;9.176;2024-02-26T07:05:08;9.30;91.30
26186;DHT22;20067;48.764;9.176;2024-02-26T07:07:34;9.30;91.30
26186;DHT22;20067;48.764;9.176;2024-02-26T07:10:00;9.50;91.30
26186;DHT22;20067;48.764;9.176;2024-02-26T07:12:32;9.60;91.30
26186;DHT22;20067;48.764;9.176;2024-02-26T07:15:00;9.80;91.30
26186;DHT22;20067;48.764;9.176;2024-02-26T07:17:26;9.80;91.30
26186;DHT22;20067;48.764;9.176;2024-02-26T07:19:51;9.70;91.30
26186;DHT22;20067;48.764;9.176;2024-02-26T07:22:17;9.60;91.30
26186;DHT22;20067;48.764;9.176;2024-02-26T07:24:43;9.80;91.30
26186;DHT22;20067;48.764;9.176;2024-02-26T07:27:08;10.00;91.30
26186;DHT22;20067;48.764;9.176;2024-02-26T07:29:34;10.10;91.30
26186;DHT22;20067;48.764;9.176;2024-02-26T07:32:00;10.30;91.30
26186;DHT22;20067;48.764;9.176;2024-02-26T07:34:26;10.30;91.30
26186;DHT22;20067;48.764;9.176;2024-02-26T07:36:55;10.20;91.30
26186;DHT22;20067;48.764;9.176;2024-02-26T07:39:21;10.20;91.30
26186;DHT22;20067;48.764;9.176;2024-02-26T07:41:46;10.10;91.30
26186;DHT22;20067;48.764;9.176;2024-02-26T07:44:15;9.90;91.30
26186;DHT22;20067;48.764;9.176;2024-02-26T07:46:41;10.00;91.30
26186;DHT22;20067;48.764;9.176;2024-02-26T07:49:06;9.80;91.30
26186;DHT22;20067;48.764;9.176;2024-02-26T07:51:33;9.90;91.30
26186;DHT22;20067;48.764;9.176;2024-02-26T07:53:59;10.10;91.30
26186;DHT22;20067;48.764;9.176;2024-02-26T07:56:24;10.30;91.30
26186;DHT22;20067;48.764;9.176;2024-02-26T07:58:50;10.50;91.30
26186;DHT22;20067;48.764;9.176;2024-02-26T08:01:16;10.50;91.30
26186;DHT22;20067;48.764;9.176;2024-02-26T08:03:41;10.60;91.30
26186;DHT22;20067;48.764;9.176;2024-02-26T08:06:08;10.70;91.30
26186;DHT22;20067;48.764;9.176;2024-02-26T08:08:34;10.10;91.30
26186;DHT22;20067;48.764;9.176;2024-02-26T08:11:00;10.30;91.30
26186;DHT22;20067;48.764;9.176;2024-02-26T08:13:25;10.70;91.30
26186;DHT22;20067;48.764;9.176;2024-02-26T08:15:51;10.70;91.30
26186;DHT22;20067;48.764;9.176;2024-02-26T08:18:18;10.80;91.30
26186;DHT22;20067;48.764;9.176;2024-02-26T08:20:44;11.10;91.30
26186;DHT22;20067;48.764;9.176;2024-02-26T08:23:10;11.20;91.20
26186;DHT22;20067;48.764;9.176;2024-02-26T08:25:35;11.20;90.40
26186;DHT22;20067;48.764;9.176;2024-02-26T08:28:01;11.10;89.90
26186;DHT22;20067;48.764;9.176;2024-02-26T08:30:27;11.10;90.30
26186;DHT22;20067;48.764;9.176;2024-02-26T08:32:52;10.90;90.80
26186;DHT22;20067;48.764;9.176;2024-02-26T08:35:19;11.00;90.90
26186;DHT22;20067;48.764;9.176;2024-02-26T08:37:45;11.20;89.60
26186;DHT22;20067;48.764;9.176;2024-02-26T08:40:11;11.50;88.50
26186;DHT22;20067;48.764;9.176;2024-02-26T08:42:37;11.60;87.50
26186;DHT22;20067;48.764;9.176;2024-02-26T08:45:03;11.70;86.10
26186;DHT22;20067;48.764;9.176;2024-02-26T08:47:29;11.80;85.50
26186;DHT22;20067;48.764;9.176;2024-02-26T08:49:54;11.80;84.80
26186;DHT22;20067;48.764;9.176;2024-02-26T08:52:20;11.90;82.90
26186;DHT22;20067;48.764;9.176;2024-02-26T08:54:47;11.70;83.00
26186;DHT22;20067;48.764;9.176;2024-02-26T08:57:13;11.80;83.80
26186;DHT22;20067;48.764;9.176;2024-02-26T08:59:38;12.00;83.40
26186;DHT22;20067;48.764;9.176;2024-02-26T09:02:04;11.80;83.90
26186;DHT22;20067;48.764;9.176;2024-02-26T09:04:29;11.30;85.20
26186;DHT22;20067;48.764;9.176;2024-02-26T09:06:55;11.20;85.60
26186;DHT22;20067;48.764;9.176;2024-02-26T09:09:20;11.30;85.70
26186;DHT22;20067;48.764;9.176;2024-02-26T09:11:48;11.30;84.80
26186;DHT22;20067;48.764;9.176;2024-02-26T09:14:14;11.10;85.70
26186;DHT22;20067;48.764;9.176;2024-02-26T09:16:39;11.00;85.80
26186;DHT22;20067;48.764;9.176;2024-02-26T09:19:05;11.20;85.60
26186;DHT22;20067;48.764;9.176;2024-02-26T09:21:30;11.20;85.20
26186;DHT22;20067;48.764;9.176;2024-02-26T09:23:56;11.30;85.10
26186;DHT22;20067;48.764;9.176;2024-02-26T09:26:22;11.20;85.10
26186;DHT22;20067;48.764;9.176;2024-02-26T09:28:47;11.00;84.90
26186;DHT22;20067;48.764;9.176;2024-02-26T09:31:15;11.40;84.90
26186;DHT22;20067;48.764;9.176;2024-02-26T09:33:42;11.60;83.50
26186;DHT22;20067;48.764;9.176;2024-02-26T09:36:07;11.30;84.40
26186;DHT22;20067;48.764;9.176;2024-02-26T09:38:35;11.20;84.20
26186;DHT22;20067;48.764;9.176;2024-02-26T09:41:06;11.10;84.70
26186;DHT22;20067;48.764;9.176;2024-02-26T09:43:36;11.30;85.10
26186;DHT22;20067;48.764;9.176;2024-02-26T09:46:02;11.60;84.10
26186;DHT22;20067;48.764;9.176;2024-02-26T09:48:29;11.60;84.00
26186;DHT22;20067;48.764;9.176;2024-02-26T09:50:56;11.70;84.20
26186;DHT22;20067;48.764;9.176;2024-02-26T09:53:22;11.50;83.70
26186;DHT22;20067;48.764;9.176;2024-02-26T09:55:48;11.50;84.50
26186;DHT22;20067;48.764;9.176;2024-02-26T09:58:13;11.80;84.20
26186;DHT22;20067;48.764;9.176;2024-02-26T10:00:47;12.00;83.40
26186;DHT22;20067;48.764;9.176;2024-02-26T10:03:15;11.90;83.00
26186;DHT22;20067;48.764;9.176;2024-02-26T10:05:41;12.20;83.40
26186;DHT22;20067;48.764;9.176;2024-02-26T10:08:09;13.10;81.20
26186;DHT22;20067;48.764;9.176;2024-02-26T10:10:36;13.30;80.40
26186;DHT22;20067;48.764;9.176;2024-02-26T10:13:03;13.60;80.20
26186;DHT22;20067;48.764;9.176;2024-02-26T10:15:38;13.90;78.00
26186;DHT22;20067;48.764;9.176;2024-02-26T10:18:04;14.00;77.10
26186;DHT22;20067;48.764;9.176;2024-02-26T10:20:31;14.30;76.80
26186;DHT22;20067;48.764;9.176;2024-02-26T10:22:57;14.20;76.00
26186;DHT22;20067;48.764;9.176;2024-02-26T10:25:23;13.90;76.10
26186;DHT22;20067;48.764;9.176;2024-02-26T10:27:49;14.00;76.30
26186;DHT22;20067;48.764;9.176;2024-02-26T10:30:19;14.50;76.20
26186;DHT22;20067;48.764;9.176;2024-02-26T10:32:45;15.10;74.20
26186;DHT22;20067;48.764;9.176;2024-02-26T10:35:13;15.10;73.60
26186;DHT22;20067;48.764;9.176;2024-02-26T10:37:40;14.60;75.50
26186;DHT22;20067;48.764;9.176;2024-02-26T10:40:13;14.60;75.90
26186;DHT22;20067;48.764;9.176;2024-02-26T10:42:40;14.60;75.90
26186;DHT22;20067;48.764;9.176;2024-02-26T10:45:06;14.60;75.70
26186;DHT22;20067;48.764;9.176;2024-02-26T10:47:33;14.60;76.00
26186;DHT22;20067;48.764;9.176;2024-02-26T10:50:00;14.80;74.60
26186;DHT22;20067;48.764;9.176;2024-02-26T10:52:27;14.60;74.50
26186;DHT22;20067;48.764;9.176;2024-02-26T10:54:57;14.40;74.20
26186;DHT22;20067;48.764;9.176;2024-02-26T10:57:27;13.90;75.10
26186;DHT22;20067;48.764;9.176;2024-02-26T10:59:54;13.70;75.70
26186;DHT22;20067;48.764;9.176;2024-02-26T11:02:21;13.50;76.30
26186;DHT22;20067;48.764;9.176;2024-02-26T11:04:46;13.70;76.50
26186;DHT22;20067;48.764;9.176;2024-02-26T11:07:13;14.30;75.90
26186;DHT22;20067;48.764;9.176;2024-02-26T11:09:40;14.80;74.60
26186;DHT22;20067;48.764;9.176;2024-02-26T11:12:13;15.40;72.50
26186;DHT22;20067;48.764;9.176;2024-02-26T11:14:45;15.30;72.00
26186;DHT22;20067;48.764;9.176;2024-02-26T11:17:13;15.80;70.70
26186;DHT22;20067;48.764;9.176;2024-02-26T11:19:41;15.50;70.20
26186;DHT22;20067;48.764;9.176;2024-02-26T11:22:08;15.60;71.40
26186;DHT22;20067;48.764;9.176;2024-02-26T11:24:34;16.10;70.40
26186;DHT22;20067;48.764;9.176;2024-02-26T11:27:05;15.90;71.00
26186;DHT22;20067;48.764;9.176;2024-02-26T11:29:42;15.30;72.60
26186;DHT22;20067;48.764;9.176;2024-02-26T11:32:09;14.90;73.40
26186;DHT22;20067;48.764;9.176;2024-02-26T11:34:35;15.50;72.10
26186;DHT22;20067;48.764;9.176;2024-02-26T11:37:14;15.40;71.90
26186;DHT22;20067;48.764;9.176;2024-02-26T11:39:41;15.30;72.80
26186;DHT22;20067;48.764;9.176;2024-02-26T11:42:13;15.70;72.90
26186;DHT22;20067;48.764;9.176;2024-02-26T11:44:39;15.40;72.80
26186;DHT22;20067;48.764;9.176;2024-02-26T11:47:19;15.20;73.10
26186;DHT22;20067;48.764;9.176;2024-02-26T11:49:45;14.50;74.90
26186;DHT22;20067;48.764;9.176;2024-02-26T11:52:12;15.00;75.10
26186;DHT22;20067;48.764;9.176;2024-02-26T11:57:26;15.30;73.00
26186;DHT22;20067;48.764;9.176;2024-02-26T12:00:00;15.00;74.50
26186;DHT22;20067;48.764;9.176;2024-02-26T12:02:52;14.70;74.70
26186;DHT22;20067;48.764;9.176;2024-02-26T12:05:24;15.20;73.60
26186;DHT22;20067;48.764;9.176;2024-02-26T12:10:34;14.80;74.80
26186;DHT22;20067;48.764;9.176;2024-02-26T12:13:12;14.70;75.20
26186;DHT22;20067;48.764;9.176;2024-02-26T12:15:41;15.00;75.30
26186;DHT22;20067;48.764;9.176;2024-02-26T12:18:08;14.90;75.20
26186;DHT22;20067;48.764;9.176;2024-02-26T12:20:35;14.80;76.00
26186;DHT22;20067;48.764;9.176;2024-02-26T12:23:02;14.70;75.80
26186;DHT22;20067;48.764;9.176;2024-02-26T12:25:30;14.40;76.60
26186;DHT22;20067;48.764;9.176;2024-02-26T12:27:57;14.30;77.00
26186;DHT22;20067;48.764;9.176;2024-02-26T12:30:23;14.80;76.20
26186;DHT22;20067;48.764;9.176;2024-02-26T12:32:51;14.80;75.70
26186;DHT22;20067;48.764;9.176;2024-02-26T12:35:17;14.50;76.40
26186;DHT22;20067;48.764;9.176;2024-02-26T12:37:46;14.10;77.20
26186;DHT22;20067;48.764;9.176;2024-02-26T12:40:12;14.30;77.30
26186;DHT22;20067;48.764;9.176;2024-02-26T12:42:39;14.60;76.90
26186;DHT22;20067;48.764;9.176;2024-02-26T12:45:06;14.90;75.90
26186;DHT22;20067;48.764;9.176;2024-02-26T12:47:36;14.80;76.20
26186;DHT22;20067;48.764;9.176;2024-02-26T12:50:03;14.90;76.20
26186;DHT22;20067;48.764;9.176;2024-02-26T12:52:31;15.50;75.30
26186;DHT22;20067;48.764;9.176;2024-02-26T12:54:57;15.60;74.80
26186;DHT22;20067;48.764;9.176;2024-02-26T12:57:23;15.60;75.10
26186;DHT22;20067;48.764;9.176;2024-02-26T12:59:49;15.80;74.70
26186;DHT22;20067;48.764;9.176;2024-02-26T13:02:15;15.40;75.30
26186;DHT22;20067;48.764;9.176;2024-02-26T13:04:41;15.60;74.60
26186;DHT22;20067;48.764;9.176;2024-02-26T13:07:08;15.30;75.30
26186;DHT22;20067;48.764;9.176;2024-02-26T13:09:34;15.10;76.00
26186;DHT22;20067;48.764;9.176;2024-02-26T13:12:05;15.00;76.10
26186;DHT22;20067;48.764;9.176;2024-02-26T13:14:31;15.10;76.10
26186;DHT22;20067;48.764;9.176;2024-02-26T13:16:59;15.20;75.70
26186;DHT22;20067;48.764;9.176;2024-02-26T13:19:25;15.20;76.60
26186;DHT22;20067;48.764;9.176;2024-02-26T13:21:51;15.50;76.60
26186;DHT22;20067;48.764;9.176;2024-02-26T13:24:19;15.80;75.50
26186;DHT22;20067;48.764;9.176;2024-02-26T13:26:45;15.90;74.90
26186;DHT22;20067;48.764;9.176;2024-02-26T13:29:18;15.80;75.10
26186;DHT22;20067;48.764;9.176;2024-02-26T13:31:44;15.80;74.90
26186;DHT22;20067;48.764;9.176;2024-02-26T13:34:09;15.70;74.60
26186;DHT22;20067;48.764;9.176;2024-02-26T13:36:35;15.50;75.00
26186;DHT22;20067;48.764;9.176;2024-02-26T13:39:01;15.80;75.70
26186;DHT22;20067;48.764;9.176;2024-02-26T13:41:27;15.70;74.70
26186;DHT22;20067;48.764;9.176;2024-02-26T13:43:52;15.70;74.00
26186;DHT22;20067;48.764;9.176;2024-02-26T13:46:18;15.90;74.60
26186;DHT22;20067;48.764;9.176;2024-02-26T13:48:44;15.70;74.10
26186;DHT22;20067;48.764;9.176;2024-02-26T13:51:10;15.50;73.60
26186;DHT22;20067;48.764;9.176;2024-02-26T13:53:35;15.50;74.30
26186;DHT22;20067;48.764;9.176;2024-02-26T13:56:02;15.80;74.00
26186;DHT22;20067;48.764;9.176;2024-02-26T13:58:29;16.00;73.30
26186;DHT22;20067;48.764;9.176;2024-02-26T14:00:55;16.30;72.70
26186;DHT22;20067;48.764;9.176;2024-02-26T14:03:21;16.40;72.60
26186;DHT22;20067;48.764;9.176;2024-02-26T14:05:47;16.70;71.50
26186;DHT22;20067;48.764;9.176;2024-02-26T14:08:12;16.60;70.90
26186;DHT22;20067;48.764;9.176;2024-02-26T14:10:38;16.30;72.00
26186;DHT22;20067;48.764;9.176;2024-02-26T14:13:04;16.30;71.60
26186;DHT22;20067;48.764;9.176;2024-02-26T14:15:30;16.10;72.20
26186;DHT22;20067;48.764;9.176;2024-02-26T14:17:56;16.10;71.80
26186;DHT22;20067;48.764;9.176;2024-02-26T14:20:23;15.70;72.30
26186;DHT22;20067;48.764;9.176;2024-02-26T14:22:52;15.50;72.90
26186;DHT22;20067;48.764;9.176;2024-02-26T14:25:19;15.40;72.50
26186;DHT22;20067;48.764;9.176;2024-02-26T14:27:46;15.50;73.20
26186;DHT22;20067;48.764;9.176;2024-02-26T14:30:13;15.50;72.70
26186;DHT22;20067;48.764;9.176;2024-02-26T14:32:38;15.20;72.90
26186;DHT22;20067;48.764;9.176;2024-02-26T14:35:06;15.20;73.60
26186;DHT22;20067;48.764;9.176;2024-02-26T14:37:32;15.30;73.20
26186;DHT22;20067;48.764;9.176;2024-02-26T14:39:58;15.10;72.80
26186;DHT22;20067;48.764;9.176;2024-02-26T14:42:24;15.10;72.80
26186;DHT22;20067;48.764;9.176;2024-02-26T14:44:50;15.00;72.40
26186;DHT22;20067;48.764;9.176;2024-02-26T14:47:16;14.90;72.80
26186;DHT22;20067;48.764;9.176;2024-02-26T14:49:42;14.90;72.80
26186;DHT22;20067;48.764;9.176;2024-02-26T14:52:09;15.00;72.40
26186;DHT22;20067;48.764;9.176;2024-02-26T14:54:34;14.90;72.20
26186;DHT22;20067;48.764;9.176;2024-02-26T14:57:04;15.00;72.40
26186;DHT22;20067;48.764;9.176;2024-02-26T14:59:32;14.90;72.60
26186;DHT22;20067;48.764;9.176;2024-02-26T15:01:59;14.90;72.60
26186;DHT22;20067;48.764;9.176;2024-02-26T15:04:27;15.10;72.30
26186;DHT22;20067;48.764;9.176;2024-02-26T15:06:53;14.80;73.20
26186;DHT22;20067;48.764;9.176;2024-02-26T15:09:19;14.60;73.40
26186;DHT22;20067;48.764;9.176;2024-02-26T15:11:44;14.50;73.40
26186;DHT22;20067;48.764;9.176;2024-02-26T15:14:10;14.40;74.00
26186;DHT22;20067;48.764;9.176;2024-02-26T15:16:36;14.40;74.00
26186;DHT22;20067;48.764;9.176;2024-02-26T15:19:02;14.60;73.90
26186;DHT22;20067;48.764;9.176;2024-02-26T15:21:29;14.50;74.40
26186;DHT22;20067;48.764;9.176;2024-02-26T15:23:55;14.60;74.30
26186;DHT22;20067;48.764;9.176;2024-02-26T15:26:20;14.40;74.80
26186;DHT22;20067;48.764;9.176;2024-02-26T15:28:47;14.30;75.30
26186;DHT22;20067;48.764;9.176;2024-02-26T15:31:15;14.20;75.60
26186;DHT22;20067;48.764;9.176;2024-02-26T15:33:41;14.40;75.50
26186;DHT22;20067;48.764;9.176;2024-02-26T15:36:07;14.20;75.70
26186;DHT22;20067;48.764;9.176;2024-02-26T15:38:35;14.10;76.10